createdAt,value
2018-06-20T00:02:25.154Z,95.30
2018-06-20T00:04:53.470Z,95.20
2018-06-20T00:07:21.814Z,95.50
2018-06-20T00:09:50.196Z,95.50
2018-06-20T00:12:18.504Z,95.50
2018-06-20T00:14:46.838Z,95.50
2018-06-20T00:17:15.147Z,95.20
2018-06-20T00:19:43.466Z,95.30
2018-06-20T00:22:11.765Z,95.00
2018-06-20T00:24:40.111Z,94.90
2018-06-20T00:27:08.415Z,95.20
2018-06-20T00:29:36.738Z,94.90
2018-06-20T00:32:05.042Z,95.30
2018-06-20T00:34:33.359Z,95.70
2018-06-20T00:37:01.664Z,96.10
2018-06-20T00:39:29.983Z,96.10
2018-06-20T00:41:58.290Z,96.00
2018-06-20T00:44:26.614Z,95.60
2018-06-20T00:46:54.914Z,95.50
2018-06-20T00:49:23.227Z,95.40
2018-06-20T00:51:51.578Z,95.30
2018-06-20T00:54:19.925Z,95.40
2018-06-20T00:56:48.307Z,95.60
2018-06-20T00:59:16.630Z,95.60
2018-06-20T01:01:44.950Z,95.70
2018-06-20T01:04:13.261Z,95.40
2018-06-20T01:09:10.403Z,95.40
2018-06-20T01:11:38.842Z,95.60
2018-06-20T01:14:07.134Z,95.70
2018-06-20T01:16:35.594Z,95.60
2018-06-20T01:19:03.918Z,95.30
2018-06-20T01:21:32.266Z,95.80
2018-06-20T01:24:00.574Z,95.90
2018-06-20T01:26:28.910Z,95.90
2018-06-20T01:28:57.223Z,96.10
2018-06-20T01:31:25.546Z,96.10
2018-06-20T01:33:53.854Z,96.10
2018-06-20T01:36:22.182Z,95.80
2018-06-20T01:38:50.487Z,95.70
2018-06-20T01:41:18.818Z,95.80
2018-06-20T01:43:47.126Z,95.30
2018-06-20T01:46:15.462Z,95.40
2018-06-20T01:48:43.775Z,95.30
2018-06-20T01:51:12.098Z,95.20
2018-06-20T01:53:40.417Z,95.60
2018-06-20T01:56:08.772Z,95.80
2018-06-20T01:58:37.074Z,96.10
2018-06-20T02:01:05.397Z,96.20
2018-06-20T02:03:33.707Z,96.30
2018-06-20T02:06:02.031Z,96.10
2018-06-20T02:08:30.334Z,95.90
2018-06-20T02:10:58.750Z,95.90
2018-06-20T02:13:27.055Z,95.80
2018-06-20T02:15:55.395Z,96.00
2018-06-20T02:20:51.768Z,96.20
2018-06-20T02:23:20.078Z,96.30
2018-06-20T02:25:48.403Z,96.50
2018-06-20T02:28:16.716Z,96.10
2018-06-20T02:30:45.044Z,96.10
2018-06-20T02:33:13.351Z,95.90
2018-06-20T02:35:41.688Z,95.80
2018-06-20T02:38:09.996Z,95.70
2018-06-20T02:40:38.323Z,95.60
2018-06-20T02:43:06.672Z,95.90
2018-06-20T02:45:34.993Z,96.00
2018-06-20T02:48:03.311Z,96.00
2018-06-20T02:50:31.654Z,96.30
2018-06-20T02:52:59.979Z,96.10
2018-06-20T02:55:28.314Z,96.10
2018-06-20T02:57:56.619Z,96.40
2018-06-20T03:00:24.925Z,96.20
2018-06-20T03:02:53.258Z,96.20
2018-06-20T03:05:21.571Z,95.90
2018-06-20T03:07:49.903Z,95.90
2018-06-20T03:10:18.215Z,96.00
2018-06-20T03:12:46.542Z,95.90
2018-06-20T03:15:14.847Z,96.20
2018-06-20T03:17:43.271Z,96.40
2018-06-20T03:20:11.578Z,96.50
2018-06-20T03:22:39.911Z,96.40
2018-06-20T03:25:08.222Z,96.10
2018-06-20T03:27:36.549Z,96.30
2018-06-20T03:30:05.209Z,96.40
2018-06-20T03:32:33.538Z,96.50
2018-06-20T03:35:01.846Z,96.60
2018-06-20T03:37:30.178Z,97.00
2018-06-20T03:39:58.499Z,96.70
2018-06-20T03:42:26.830Z,96.50
2018-06-20T03:44:55.138Z,96.40
2018-06-20T03:47:23.467Z,96.60
2018-06-20T03:49:51.778Z,96.80
2018-06-20T03:52:20.142Z,97.00
2018-06-20T03:54:48.450Z,96.60
2018-06-20T03:57:16.791Z,96.40
2018-06-20T03:59:45.103Z,96.50
2018-06-20T04:02:13.433Z,96.70
2018-06-20T04:04:41.743Z,96.50
2018-06-20T04:07:10.075Z,96.40
2018-06-20T04:09:38.382Z,96.10
2018-06-20T04:12:06.750Z,96.50
2018-06-20T04:14:35.055Z,96.40
2018-06-20T04:17:03.382Z,96.50
2018-06-20T04:19:31.688Z,96.90
2018-06-20T04:22:00.045Z,96.50
2018-06-20T04:24:28.358Z,96.90
2018-06-20T04:26:56.686Z,96.70
2018-06-20T04:29:24.994Z,96.40
2018-06-20T04:31:53.314Z,95.90
2018-06-20T04:34:21.626Z,95.50
2018-06-20T04:36:49.958Z,95.70
2018-06-20T04:41:46.529Z,95.60
2018-06-20T04:44:14.831Z,95.70
2018-06-20T04:46:43.163Z,95.80
2018-06-20T04:49:11.563Z,95.90
2018-06-20T04:51:39.910Z,95.80
2018-06-20T04:54:08.230Z,95.70
2018-06-20T04:56:36.579Z,95.80
2018-06-20T04:59:04.886Z,95.80
2018-06-20T05:01:33.206Z,95.90
2018-06-20T05:04:01.539Z,96.20
2018-06-20T05:06:29.849Z,96.00
2018-06-20T05:08:58.210Z,95.80
2018-06-20T05:11:26.574Z,95.40
2018-06-20T05:13:54.914Z,95.80
2018-06-20T05:16:23.214Z,95.70
2018-06-20T05:18:51.550Z,95.40
2018-06-20T05:21:20.270Z,95.30
2018-06-20T05:23:48.594Z,95.20
2018-06-20T05:26:16.898Z,95.30
2018-06-20T05:28:45.240Z,95.30
2018-06-20T05:31:13.546Z,95.10
2018-06-20T05:33:41.880Z,95.00
2018-06-20T05:36:10.186Z,94.80
2018-06-20T05:38:38.515Z,94.30
2018-06-20T05:43:34.886Z,94.60
2018-06-20T05:46:03.234Z,94.30
2018-06-20T05:48:31.566Z,94.40
2018-06-20T05:50:59.871Z,94.40
2018-06-20T05:53:28.247Z,94.00
2018-06-20T05:55:56.550Z,94.20
2018-06-20T05:58:24.897Z,93.70
2018-06-20T06:00:53.206Z,94.10
2018-06-20T06:03:21.543Z,94.00
2018-06-20T06:06:17.091Z,93.40
2018-06-20T06:08:46.114Z,93.10
2018-06-20T06:11:14.458Z,93.40
2018-06-20T06:13:42.826Z,93.30
2018-06-20T06:16:11.143Z,93.60
2018-06-20T06:18:39.475Z,93.40
2018-06-20T06:21:07.802Z,93.50
2018-06-20T06:23:36.134Z,93.50
2018-06-20T06:26:04.474Z,92.80
2018-06-20T06:28:32.806Z,92.70
2018-06-20T06:31:01.166Z,92.30
2018-06-20T06:33:29.498Z,92.10
2018-06-20T06:35:57.806Z,92.30
2018-06-20T06:38:26.146Z,91.50
2018-06-20T06:40:54.458Z,91.10
2018-06-20T06:43:22.794Z,91.00
2018-06-20T06:45:51.106Z,91.10
2018-06-20T06:48:19.439Z,90.00
2018-06-20T06:50:47.750Z,90.00
2018-06-20T06:53:16.102Z,90.10
2018-06-20T06:55:44.411Z,89.60
2018-06-20T06:58:12.751Z,89.40
2018-06-20T07:00:41.063Z,88.80
2018-06-20T07:03:09.403Z,88.70
2018-06-20T07:05:37.722Z,88.60
2018-06-20T07:08:06.051Z,88.20
2018-06-20T07:10:34.365Z,87.80
2018-06-20T07:13:02.711Z,87.20
2018-06-20T07:15:31.100Z,87.20
2018-06-20T07:17:59.399Z,86.80
2018-06-20T07:20:27.702Z,86.30
2018-06-20T07:22:56.015Z,86.10
2018-06-20T07:25:24.342Z,85.20
2018-06-20T07:27:52.643Z,84.60
2018-06-20T07:30:20.971Z,83.80
2018-06-20T07:32:49.285Z,83.30
2018-06-20T07:35:17.619Z,82.10
2018-06-20T07:37:45.934Z,81.10
2018-06-20T07:40:14.288Z,82.00
2018-06-20T07:42:42.600Z,79.20
2018-06-20T07:45:11.016Z,78.50
2018-06-20T07:47:39.262Z,76.90
2018-06-20T07:50:07.587Z,77.60
2018-06-20T07:52:35.911Z,75.80
2018-06-20T07:55:04.251Z,76.50
2018-06-20T07:57:32.551Z,75.40
2018-06-20T08:00:06.199Z,74.60
2018-06-20T08:02:51.495Z,75.40
2018-06-20T08:05:25.123Z,74.70
2018-06-20T08:07:58.927Z,74.30
2018-06-20T08:10:32.563Z,74.80
2018-06-20T08:13:06.213Z,76.30
2018-06-20T08:15:39.898Z,75.50
2018-06-20T08:18:13.696Z,75.60
2018-06-20T08:20:42.007Z,74.90
2018-06-20T08:25:38.421Z,74.20
2018-06-20T08:28:06.674Z,74.80
2018-06-20T08:30:35.007Z,71.70
2018-06-20T08:33:03.298Z,73.80
2018-06-20T08:35:32.843Z,72.60
2018-06-20T08:38:01.147Z,71.90
2018-06-20T08:40:29.550Z,71.40
2018-06-20T08:42:57.850Z,72.90
2018-06-20T08:45:26.189Z,71.50
2018-06-20T08:47:54.494Z,72.10
2018-06-20T08:50:22.807Z,71.30
2018-06-20T08:52:51.122Z,73.70
2018-06-20T08:55:19.467Z,72.40
2018-06-20T08:57:47.762Z,73.60
2018-06-20T09:00:20.300Z,72.40
2018-06-20T09:02:48.594Z,71.20
2018-06-20T09:05:22.146Z,71.10
2018-06-20T09:07:55.727Z,71.40
2018-06-20T09:10:29.431Z,72.70
2018-06-20T09:13:03.155Z,70.40
2018-06-20T09:15:36.818Z,70.40
2018-06-20T09:18:10.643Z,72.10
2018-06-20T09:20:38.971Z,70.80
2018-06-20T09:23:07.275Z,71.00
2018-06-20T09:25:35.598Z,72.60
2018-06-20T09:28:03.894Z,73.30
2018-06-20T09:30:32.250Z,73.00
2018-06-20T09:33:00.587Z,72.50
2018-06-20T09:35:28.958Z,72.70
2018-06-20T09:37:57.364Z,72.60
2018-06-20T09:40:25.718Z,70.90
2018-06-20T09:42:54.228Z,71.90
2018-06-20T09:45:22.546Z,72.00
2018-06-20T09:47:50.842Z,70.90
2018-06-20T09:50:24.538Z,71.30
2018-06-20T09:52:52.906Z,69.10
2018-06-20T09:55:21.235Z,69.40
2018-06-20T09:57:49.577Z,67.10
2018-06-20T10:00:23.441Z,69.10
2018-06-20T10:02:57.163Z,70.70
2018-06-20T10:05:30.870Z,69.90
2018-06-20T10:08:04.614Z,69.40
2018-06-20T10:10:38.394Z,71.80
2018-06-20T10:13:16.490Z,70.70
2018-06-20T10:15:44.826Z,70.60
2018-06-20T10:18:13.239Z,70.70
2018-06-20T10:20:41.574Z,71.70
2018-06-20T10:23:09.874Z,69.90
2018-06-20T10:25:38.242Z,70.90
2018-06-20T10:28:06.658Z,70.30
2018-06-20T10:30:34.971Z,70.10
2018-06-20T10:33:03.272Z,69.90
2018-06-20T10:35:31.578Z,69.20
2018-06-20T10:37:59.883Z,68.80
2018-06-20T10:40:28.210Z,68.70
2018-06-20T10:42:56.602Z,68.50
2018-06-20T10:45:30.422Z,69.20
2018-06-20T10:47:58.717Z,69.80
2018-06-20T10:50:27.063Z,69.40
2018-06-20T10:52:55.383Z,69.60
2018-06-20T10:55:23.747Z,69.30
2018-06-20T10:57:57.522Z,68.20
2018-06-20T11:00:31.306Z,67.20
2018-06-20T11:03:05.087Z,68.40
2018-06-20T11:06:41.750Z,68.70
2018-06-20T11:09:15.515Z,69.90
2018-06-20T11:14:17.324Z,68.10
2018-06-20T11:19:13.694Z,67.20
2018-06-20T11:21:42.115Z,66.20
2018-06-20T11:24:10.442Z,66.30
2018-06-20T11:26:38.763Z,66.80
2018-06-20T11:29:07.083Z,66.30
2018-06-20T11:31:35.398Z,65.80
2018-06-20T11:34:03.706Z,66.70
2018-06-20T11:36:32.035Z,66.40
2018-06-20T11:39:00.332Z,65.90
2018-06-20T11:41:28.654Z,64.90
2018-06-20T11:43:56.954Z,65.70
2018-06-20T11:46:30.654Z,66.20
2018-06-20T11:48:58.954Z,65.90
2018-06-20T11:51:27.272Z,67.10
2018-06-20T11:53:55.598Z,66.80
2018-06-20T11:56:24.098Z,65.80
2018-06-20T11:58:57.718Z,66.20
2018-06-20T12:01:31.255Z,66.20
2018-06-20T12:04:04.954Z,66.00
2018-06-20T12:07:41.594Z,64.80
2018-06-20T12:10:15.259Z,64.20
2018-06-20T12:12:48.877Z,64.70
2018-06-20T12:15:22.614Z,65.40
2018-06-20T12:17:56.282Z,64.00
2018-06-20T12:20:30.059Z,64.60
2018-06-20T12:23:03.920Z,62.00
2018-06-20T12:25:37.534Z,63.60
2018-06-20T12:28:11.148Z,64.50
2018-06-20T12:30:44.798Z,64.00
2018-06-20T12:33:18.436Z,65.30
2018-06-20T12:35:52.107Z,64.50
2018-06-20T12:38:25.795Z,63.50
2018-06-20T12:41:01.979Z,63.10
2018-06-20T12:43:35.764Z,64.40
2018-06-20T12:46:08.079Z,65.40
2018-06-20T12:48:36.398Z,65.90
2018-06-20T12:51:04.731Z,65.80
2018-06-20T12:53:33.042Z,63.70
2018-06-20T12:56:02.398Z,63.90
2018-06-20T12:58:30.719Z,63.80
2018-06-20T13:00:59.017Z,64.10
2018-06-20T13:03:27.339Z,63.40
2018-06-20T13:05:55.638Z,63.00
2018-06-20T13:08:23.970Z,62.30
2018-06-20T13:10:52.271Z,62.80
2018-06-20T13:13:20.624Z,62.40
2018-06-20T13:15:48.923Z,62.30
2018-06-20T13:18:17.242Z,59.90
2018-06-20T13:20:45.546Z,58.90
2018-06-20T13:23:13.863Z,60.30
2018-06-20T13:25:42.165Z,59.70
2018-06-20T13:28:10.484Z,59.10
2018-06-20T13:30:38.786Z,59.00
2018-06-20T13:33:12.408Z,60.70
2018-06-20T13:35:46.111Z,61.10
2018-06-20T13:38:19.946Z,60.30
2018-06-20T13:40:53.666Z,60.30
2018-06-20T13:43:27.402Z,60.20
2018-06-20T13:46:01.107Z,60.10
2018-06-20T13:48:31.563Z,61.30
2018-06-20T13:50:59.870Z,59.60
2018-06-20T13:53:28.214Z,59.30
2018-06-20T13:55:56.526Z,59.50
2018-06-20T13:58:24.854Z,59.40
2018-06-20T14:00:53.249Z,58.70
2018-06-20T14:03:21.574Z,58.90
2018-06-20T14:05:49.894Z,58.20
2018-06-20T14:08:18.220Z,57.60
2018-06-20T14:10:46.557Z,57.60
2018-06-20T14:13:14.892Z,56.30
2018-06-20T14:15:43.215Z,58.40
2018-06-20T14:18:11.758Z,56.90
2018-06-20T14:20:45.367Z,55.80
2018-06-20T14:23:13.693Z,55.10
2018-06-20T14:25:42.003Z,56.50
2018-06-20T14:28:10.330Z,55.80
2018-06-20T14:30:43.999Z,56.40
2018-06-20T14:33:17.570Z,56.40
2018-06-20T14:36:55.119Z,55.80
2018-06-20T14:39:28.910Z,54.90
2018-06-20T14:42:02.622Z,57.20
2018-06-20T14:44:30.965Z,56.90
2018-06-20T14:46:59.280Z,55.20
2018-06-20T14:49:27.674Z,56.80
2018-06-20T14:51:55.990Z,57.10
2018-06-20T14:54:24.374Z,56.40
2018-06-20T14:56:52.695Z,56.90
2018-06-20T14:59:21.151Z,57.20
2018-06-20T15:01:49.451Z,58.00
2018-06-20T15:04:17.835Z,57.70
2018-06-20T15:06:46.208Z,57.60
2018-06-20T15:09:14.508Z,57.50
2018-06-20T15:11:42.862Z,57.20
2018-06-20T15:14:11.352Z,57.50
2018-06-20T15:16:45.118Z,57.30
2018-06-20T15:19:13.579Z,57.30
2018-06-20T15:21:41.885Z,58.50
2018-06-20T15:24:10.206Z,58.40
2018-06-20T15:27:45.838Z,57.40
2018-06-20T15:30:19.555Z,57.70
2018-06-20T15:32:53.339Z,57.90
2018-06-20T15:35:27.125Z,57.90
2018-06-20T15:38:00.950Z,57.00
2018-06-20T15:40:29.272Z,57.10
2018-06-20T15:42:57.710Z,56.80
2018-06-20T15:45:26.176Z,56.90
2018-06-20T15:47:54.507Z,58.00
2018-06-20T15:50:22.811Z,56.80
2018-06-20T15:52:51.230Z,56.70
2018-06-20T15:55:19.578Z,57.10
2018-06-20T15:57:47.882Z,57.10
2018-06-20T16:00:16.256Z,57.40
2018-06-20T16:02:44.526Z,57.20
2018-06-20T16:05:12.842Z,57.10
2018-06-20T16:07:41.186Z,57.40
2018-06-20T16:10:12.044Z,57.20
2018-06-20T16:12:40.368Z,56.80
2018-06-20T16:15:08.686Z,57.70
2018-06-20T16:17:37.002Z,56.90
2018-06-20T16:20:10.637Z,56.90
2018-06-20T16:22:44.234Z,56.80
2018-06-20T16:25:17.966Z,57.40
2018-06-20T16:27:51.611Z,57.30
2018-06-20T16:30:25.330Z,57.10
2018-06-20T16:32:53.845Z,57.60
2018-06-20T16:35:22.147Z,58.20
2018-06-20T16:37:50.517Z,57.60
2018-06-20T16:40:18.836Z,56.90
2018-06-20T16:42:47.246Z,57.90
2018-06-20T16:45:15.552Z,57.30
2018-06-20T16:47:44.161Z,57.40
2018-06-20T16:50:12.510Z,56.80
2018-06-20T16:52:40.839Z,57.70
2018-06-20T16:55:09.188Z,57.00
2018-06-20T16:57:37.510Z,56.90
2018-06-20T17:00:06.227Z,57.80
2018-06-20T17:02:36.587Z,57.20
2018-06-20T17:05:05.095Z,57.30
2018-06-20T17:07:33.407Z,57.40
2018-06-20T17:10:01.751Z,57.80
2018-06-20T17:12:35.460Z,57.50
2018-06-20T17:15:09.332Z,57.30
2018-06-20T17:17:43.094Z,57.70
2018-06-20T17:20:16.891Z,57.80
2018-06-20T17:22:50.750Z,58.00
2018-06-20T17:25:22.554Z,57.80
2018-06-20T17:27:50.862Z,56.90
2018-06-20T17:30:19.199Z,57.30
2018-06-20T17:32:47.555Z,57.80
2018-06-20T17:35:15.926Z,56.90
2018-06-20T17:37:44.230Z,57.10
2018-06-20T17:40:12.590Z,57.60
2018-06-20T17:42:40.902Z,57.20
2018-06-20T17:45:09.262Z,57.60
2018-06-20T17:47:37.580Z,57.60
2018-06-20T17:50:05.930Z,57.70
2018-06-20T17:52:34.235Z,57.90
2018-06-20T17:55:02.726Z,58.60
2018-06-20T17:57:31.027Z,58.90
2018-06-20T17:59:59.370Z,58.20
2018-06-20T18:02:27.723Z,58.10
2018-06-20T18:05:01.367Z,58.00
2018-06-20T18:07:34.948Z,58.00
2018-06-20T18:10:08.686Z,58.50
2018-06-20T18:12:42.453Z,58.80
2018-06-20T18:15:16.035Z,58.90
2018-06-20T18:17:44.347Z,58.40
2018-06-20T18:20:12.690Z,58.60
2018-06-20T18:22:41.082Z,58.60
2018-06-20T18:25:09.382Z,58.90
2018-06-20T18:27:37.694Z,59.10
2018-06-20T18:30:06.021Z,59.30
2018-06-20T18:32:34.380Z,59.20
2018-06-20T18:35:02.686Z,59.20
2018-06-20T18:37:31.046Z,59.40
2018-06-20T18:40:04.152Z,59.80
2018-06-20T18:42:32.974Z,59.80
2018-06-20T18:45:01.443Z,60.70
2018-06-20T18:47:35.278Z,59.50
2018-06-20T18:50:03.671Z,59.90
2018-06-20T18:52:32.032Z,59.90
2018-06-20T18:55:00.377Z,60.10
2018-06-20T18:57:34.203Z,59.70
2018-06-20T19:00:07.894Z,60.10
2018-06-20T19:02:41.631Z,60.90
2018-06-20T19:06:13.308Z,60.60
2018-06-20T19:08:46.970Z,60.80
2018-06-20T19:11:15.470Z,61.00
2018-06-20T19:13:43.794Z,62.10
2018-06-20T19:16:12.178Z,63.70
2018-06-20T19:18:40.485Z,65.00
2018-06-20T19:21:08.803Z,65.20
2018-06-20T19:23:37.164Z,66.20
2018-06-20T19:26:05.542Z,67.40
2018-06-20T19:28:33.894Z,68.30
2018-06-20T19:31:02.203Z,68.10
2018-06-20T19:33:30.539Z,68.20
2018-06-20T19:35:58.971Z,68.50
2018-06-20T19:38:27.405Z,68.10
2018-06-20T19:40:55.734Z,68.90
2018-06-20T19:45:52.131Z,69.50
2018-06-20T19:48:20.498Z,68.90
2018-06-20T19:50:48.813Z,69.30
2018-06-20T19:53:17.239Z,69.40
2018-06-20T19:55:45.538Z,69.60
2018-06-20T19:58:13.872Z,69.40
2018-06-20T20:00:42.283Z,69.40
2018-06-20T20:03:10.606Z,70.50
2018-06-20T20:05:38.898Z,71.40
2018-06-20T20:08:07.273Z,71.80
2018-06-20T20:10:35.619Z,71.40
2018-06-20T20:13:03.966Z,71.50
2018-06-20T20:15:32.278Z,71.70
2018-06-20T20:18:00.598Z,72.60
2018-06-20T20:20:28.991Z,73.90
2018-06-20T20:22:57.250Z,74.00
2018-06-20T20:25:25.575Z,74.40
2018-06-20T20:27:53.960Z,74.30
2018-06-20T20:30:22.282Z,74.10
2018-06-20T20:32:50.590Z,73.40
2018-06-20T20:35:18.910Z,74.00
2018-06-20T20:37:47.206Z,74.60
2018-06-20T20:40:15.529Z,74.50
2018-06-20T20:42:43.936Z,74.20
2018-06-20T20:45:12.262Z,74.80
2018-06-20T20:47:40.599Z,74.50
2018-06-20T20:50:08.938Z,72.70
2018-06-20T20:52:37.251Z,73.00
2018-06-20T20:55:05.947Z,73.50
2018-06-20T20:57:34.250Z,74.10
2018-06-20T21:00:02.590Z,74.90
2018-06-20T21:02:30.909Z,74.80
2018-06-20T21:04:59.234Z,75.80
2018-06-20T21:07:27.568Z,75.80
2018-06-20T21:09:55.910Z,75.40
2018-06-20T21:12:24.217Z,76.40
2018-06-20T21:14:52.557Z,74.40
2018-06-20T21:17:20.866Z,75.80
2018-06-20T21:19:49.198Z,76.50
2018-06-20T21:22:17.506Z,77.50
2018-06-20T21:24:45.843Z,78.10
2018-06-20T21:27:14.147Z,78.30
2018-06-20T21:29:42.495Z,78.50
2018-06-20T21:32:10.851Z,79.00
2018-06-20T21:34:39.151Z,79.40
2018-06-20T21:37:07.480Z,79.10
2018-06-20T21:39:35.791Z,78.90
2018-06-20T21:42:04.126Z,79.10
2018-06-20T21:44:32.434Z,79.20
2018-06-20T21:47:00.760Z,79.40
2018-06-20T21:49:29.098Z,79.30
2018-06-20T21:51:57.414Z,79.40
2018-06-20T21:54:25.721Z,79.70
2018-06-20T21:56:54.054Z,79.60
2018-06-20T21:59:22.350Z,79.70
2018-06-20T22:01:50.692Z,80.20
2018-06-20T22:04:19.227Z,80.00
2018-06-20T22:06:47.546Z,80.00
2018-06-20T22:09:15.850Z,80.00
2018-06-20T22:11:44.175Z,80.30
2018-06-20T22:14:12.475Z,80.40
2018-06-20T22:16:40.795Z,80.40
2018-06-20T22:19:09.098Z,80.60
2018-06-20T22:21:37.434Z,80.80
2018-06-20T22:24:05.955Z,81.00
2018-06-20T22:26:34.286Z,81.20
2018-06-20T22:29:02.580Z,81.50
2018-06-20T22:31:30.894Z,81.60
2018-06-20T22:33:59.195Z,81.80
2018-06-20T22:36:27.532Z,81.60
2018-06-20T22:38:55.831Z,81.40
2018-06-20T22:41:24.179Z,81.60
2018-06-20T22:43:52.461Z,81.60
2018-06-20T22:46:20.754Z,81.90
2018-06-20T22:48:49.114Z,82.00
2018-06-20T22:51:17.628Z,82.00
2018-06-20T22:53:45.960Z,81.80
2018-06-20T22:56:14.264Z,82.10
2018-06-20T22:58:42.590Z,82.20
2018-06-20T23:01:10.895Z,82.30
2018-06-20T23:03:39.331Z,82.20
2018-06-20T23:06:07.799Z,82.50
2018-06-20T23:08:36.138Z,82.70
2018-06-20T23:11:04.432Z,82.80
2018-06-20T23:13:32.774Z,83.10
2018-06-20T23:16:01.075Z,82.90
2018-06-20T23:18:29.583Z,83.10
2018-06-20T23:20:57.944Z,82.90
2018-06-20T23:23:26.266Z,83.20
2018-06-20T23:25:54.558Z,83.20
2018-06-20T23:28:22.879Z,83.20
2018-06-20T23:30:51.180Z,83.20
2018-06-20T23:33:19.514Z,83.30
2018-06-20T23:35:47.832Z,83.50
2018-06-20T23:38:16.302Z,83.50
2018-06-20T23:40:44.631Z,83.70
2018-06-20T23:43:12.934Z,83.70
2018-06-20T23:45:41.255Z,83.90
2018-06-20T23:48:09.583Z,84.30
2018-06-20T23:50:37.902Z,84.30
2018-06-20T23:53:07.074Z,84.60
2018-06-20T23:55:35.410Z,84.30
2018-06-20T23:58:03.738Z,84.50
